sensor_id;sensor_type;location;lat;lon;timestamp;P1;durP1;ratioP1;P2;durP2;ratioP2
75446;SDS011;64024;55.820;37.574;2023-03-23T00:00:05;5.70;;;5.20;;
75446;SDS011;64024;55.820;37.574;2023-03-23T00:02:32;5.43;;;4.93;;
75446;SDS011;64024;55.820;37.574;2023-03-23T00:05:00;5.10;;;4.60;;
75446;SDS011;64024;55.820;37.574;2023-03-23T00:07:32;5.32;;;4.75;;
75446;SDS011;64024;55.820;37.574;2023-03-23T00:10:00;5.82;;;5.22;;
75446;SDS011;64024;55.820;37.574;2023-03-23T00:12:28;5.40;;;4.90;;
75446;SDS011;64024;55.820;37.574;2023-03-23T00:15:05;5.32;;;4.82;;
75446;SDS011;64024;55.820;37.574;2023-03-23T00:17:32;4.72;;;4.32;;
75446;SDS011;64024;55.820;37.574;2023-03-23T00:19:58;5.28;;;4.82;;
75446;SDS011;64024;55.820;37.574;2023-03-23T00:22:26;4.82;;;4.40;;
75446;SDS011;64024;55.820;37.574;2023-03-23T00:24:53;5.57;;;4.75;;
75446;SDS011;64024;55.820;37.574;2023-03-23T00:27:22;5.35;;;4.85;;
75446;SDS011;64024;55.820;37.574;2023-03-23T00:29:51;5.45;;;4.95;;
75446;SDS011;64024;55.820;37.574;2023-03-23T00:32:20;5.45;;;4.95;;
75446;SDS011;64024;55.820;37.574;2023-03-23T00:34:56;5.72;;;5.22;;
75446;SDS011;64024;55.820;37.574;2023-03-23T00:37:25;5.35;;;4.85;;
75446;SDS011;64024;55.820;37.574;2023-03-23T00:39:51;6.07;;;5.55;;
75446;SDS011;64024;55.820;37.574;2023-03-23T00:42:22;5.28;;;4.78;;
75446;SDS011;64024;55.820;37.574;2023-03-23T00:44:48;5.70;;;5.05;;
75446;SDS011;64024;55.820;37.574;2023-03-23T00:47:14;5.78;;;5.28;;
75446;SDS011;64024;55.820;37.574;2023-03-23T00:49:42;5.43;;;4.97;;
75446;SDS011;64024;55.820;37.574;2023-03-23T00:52:09;5.32;;;4.82;;
75446;SDS011;64024;55.820;37.574;2023-03-23T00:54:35;7.80;;;7.10;;
75446;SDS011;64024;55.820;37.574;2023-03-23T00:57:03;6.40;;;5.85;;
75446;SDS011;64024;55.820;37.574;2023-03-23T00:59:29;5.82;;;5.22;;
75446;SDS011;64024;55.820;37.574;2023-03-23T01:01:54;5.68;;;5.18;;
75446;SDS011;64024;55.820;37.574;2023-03-23T01:04:20;5.53;;;5.03;;
75446;SDS011;64024;55.820;37.574;2023-03-23T01:06:47;5.20;;;4.70;;
75446;SDS011;64024;55.820;37.574;2023-03-23T01:09:15;5.68;;;5.18;;
75446;SDS011;64024;55.820;37.574;2023-03-23T01:11:42;5.57;;;5.05;;
75446;SDS011;64024;55.820;37.574;2023-03-23T01:14:08;6.00;;;5.40;;
75446;SDS011;64024;55.820;37.574;2023-03-23T01:16:35;5.38;;;4.65;;
75446;SDS011;64024;55.820;37.574;2023-03-23T01:19:00;4.72;;;4.32;;
75446;SDS011;64024;55.820;37.574;2023-03-23T01:21:26;5.43;;;4.93;;
75446;SDS011;64024;55.820;37.574;2023-03-23T01:23:51;5.03;;;4.53;;
75446;SDS011;64024;55.820;37.574;2023-03-23T01:26:18;5.25;;;4.75;;
75446;SDS011;64024;55.820;37.574;2023-03-23T01:28:47;4.68;;;4.28;;
75446;SDS011;64024;55.820;37.574;2023-03-23T01:31:14;5.90;;;5.30;;
75446;SDS011;64024;55.820;37.574;2023-03-23T01:33:41;4.72;;;4.32;;
75446;SDS011;64024;55.820;37.574;2023-03-23T01:36:11;5.20;;;4.70;;
75446;SDS011;64024;55.820;37.574;2023-03-23T01:38:39;5.00;;;4.50;;
75446;SDS011;64024;55.820;37.574;2023-03-23T01:41:06;6.03;;;5.43;;
75446;SDS011;64024;55.820;37.574;2023-03-23T01:43:31;4.82;;;4.32;;
75446;SDS011;64024;55.820;37.574;2023-03-23T01:45:57;5.13;;;4.50;;
75446;SDS011;64024;55.820;37.574;2023-03-23T01:48:23;5.45;;;4.95;;
75446;SDS011;64024;55.820;37.574;2023-03-23T01:50:57;5.28;;;4.85;;
75446;SDS011;64024;55.820;37.574;2023-03-23T01:53:31;5.53;;;4.93;;
75446;SDS011;64024;55.820;37.574;2023-03-23T01:56:07;4.15;;;3.83;;
75446;SDS011;64024;55.820;37.574;2023-03-23T01:58:36;5.32;;;4.75;;
75446;SDS011;64024;55.820;37.574;2023-03-23T02:01:05;5.05;;;4.57;;
75446;SDS011;64024;55.820;37.574;2023-03-23T02:03:36;5.25;;;4.75;;
75446;SDS011;64024;55.820;37.574;2023-03-23T02:06:04;5.22;;;4.60;;
75446;SDS011;64024;55.820;37.574;2023-03-23T02:08:30;5.72;;;5.22;;
75446;SDS011;64024;55.820;37.574;2023-03-23T02:10:58;4.95;;;4.32;;
75446;SDS011;64024;55.820;37.574;2023-03-23T02:13:24;6.20;;;5.60;;
75446;SDS011;64024;55.820;37.574;2023-03-23T02:16:03;4.97;;;4.47;;
75446;SDS011;64024;55.820;37.574;2023-03-23T02:18:33;5.10;;;4.63;;
75446;SDS011;64024;55.820;37.574;2023-03-23T02:21:25;5.25;;;4.75;;
75446;SDS011;64024;55.820;37.574;2023-03-23T02:26:47;5.25;;;4.85;;
75446;SDS011;64024;55.820;37.574;2023-03-23T02:32:24;4.93;;;4.40;;
75446;SDS011;64024;55.820;37.574;2023-03-23T02:35:15;5.68;;;5.18;;
75446;SDS011;64024;55.820;37.574;2023-03-23T02:37:48;5.07;;;4.45;;
75446;SDS011;64024;55.820;37.574;2023-03-23T02:41:00;5.07;;;4.57;;
75446;SDS011;64024;55.820;37.574;2023-03-23T02:43:10;5.22;;;4.13;;
75446;SDS011;64024;55.820;37.574;2023-03-23T02:45:39;6.30;;;5.40;;
75446;SDS011;64024;55.820;37.574;2023-03-23T02:48:09;5.10;;;4.60;;
75446;SDS011;64024;55.820;37.574;2023-03-23T02:50:37;5.15;;;4.65;;
75446;SDS011;64024;55.820;37.574;2023-03-23T02:53:08;5.53;;;5.03;;
75446;SDS011;64024;55.820;37.574;2023-03-23T02:55:36;6.15;;;5.55;;
75446;SDS011;64024;55.820;37.574;2023-03-23T02:58:07;5.70;;;5.15;;
75446;SDS011;64024;55.820;37.574;2023-03-23T03:00:33;5.55;;;5.05;;
75446;SDS011;64024;55.820;37.574;2023-03-23T03:02:59;5.65;;;5.15;;
75446;SDS011;64024;55.820;37.574;2023-03-23T03:05:44;4.95;;;4.47;;
75446;SDS011;64024;55.820;37.574;2023-03-23T03:08:47;5.20;;;4.63;;
75446;SDS011;64024;55.820;37.574;2023-03-23T03:11:20;4.90;;;4.40;;
75446;SDS011;64024;55.820;37.574;2023-03-23T03:13:54;5.63;;;5.13;;
75446;SDS011;64024;55.820;37.574;2023-03-23T03:16:27;5.70;;;4.88;;
75446;SDS011;64024;55.820;37.574;2023-03-23T03:21:37;5.13;;;4.53;;
75446;SDS011;64024;55.820;37.574;2023-03-23T03:24:07;5.22;;;4.72;;
75446;SDS011;64024;55.820;37.574;2023-03-23T03:26:36;6.03;;;5.47;;
75446;SDS011;64024;55.820;37.574;2023-03-23T03:29:04;5.93;;;5.43;;
75446;SDS011;64024;55.820;37.574;2023-03-23T03:31:35;6.65;;;5.25;;
75446;SDS011;64024;55.820;37.574;2023-03-23T03:34:04;5.38;;;4.88;;
75446;SDS011;64024;55.820;37.574;2023-03-23T03:36:32;5.55;;;5.05;;
75446;SDS011;64024;55.820;37.574;2023-03-23T03:39:03;5.50;;;5.03;;
75446;SDS011;64024;55.820;37.574;2023-03-23T03:41:33;4.70;;;4.00;;
75446;SDS011;64024;55.820;37.574;2023-03-23T03:46:25;4.80;;;4.05;;
75446;SDS011;64024;55.820;37.574;2023-03-23T03:48:53;5.32;;;4.82;;
75446;SDS011;64024;55.820;37.574;2023-03-23T03:51:18;5.50;;;5.00;;
75446;SDS011;64024;55.820;37.574;2023-03-23T03:53:44;6.13;;;5.53;;
75446;SDS011;64024;55.820;37.574;2023-03-23T03:56:10;5.18;;;4.45;;
75446;SDS011;64024;55.820;37.574;2023-03-23T03:58:36;5.40;;;4.90;;
75446;SDS011;64024;55.820;37.574;2023-03-23T04:01:02;6.38;;;5.43;;
75446;SDS011;64024;55.820;37.574;2023-03-23T04:03:28;5.75;;;5.25;;
75446;SDS011;64024;55.820;37.574;2023-03-23T04:05:54;4.43;;;4.00;;
75446;SDS011;64024;55.820;37.574;2023-03-23T04:08:23;6.20;;;4.60;;
75446;SDS011;64024;55.820;37.574;2023-03-23T04:10:49;5.30;;;4.80;;
75446;SDS011;64024;55.820;37.574;2023-03-23T04:13:15;6.88;;;5.30;;
75446;SDS011;64024;55.820;37.574;2023-03-23T04:15:41;7.65;;;4.75;;
75446;SDS011;64024;55.820;37.574;2023-03-23T04:18:06;6.90;;;5.68;;
75446;SDS011;64024;55.820;37.574;2023-03-23T04:20:33;5.43;;;4.93;;
75446;SDS011;64024;55.820;37.574;2023-03-23T04:23:00;7.88;;;5.82;;
75446;SDS011;64024;55.820;37.574;2023-03-23T04:25:26;6.03;;;5.43;;
75446;SDS011;64024;55.820;37.574;2023-03-23T04:27:53;6.50;;;5.43;;
75446;SDS011;64024;55.820;37.574;2023-03-23T04:30:23;6.85;;;5.75;;
75446;SDS011;64024;55.820;37.574;2023-03-23T04:32:52;6.60;;;5.55;;
75446;SDS011;64024;55.820;37.574;2023-03-23T04:35:20;5.38;;;4.88;;
75446;SDS011;64024;55.820;37.574;2023-03-23T04:37:51;5.70;;;4.70;;
75446;SDS011;64024;55.820;37.574;2023-03-23T04:40:18;8.80;;;4.53;;
75446;SDS011;64024;55.820;37.574;2023-03-23T04:42:44;5.72;;;4.97;;
75446;SDS011;64024;55.820;37.574;2023-03-23T04:45:11;4.95;;;4.03;;
75446;SDS011;64024;55.820;37.574;2023-03-23T04:47:39;5.40;;;4.90;;
75446;SDS011;64024;55.820;37.574;2023-03-23T04:50:09;6.07;;;5.43;;
75446;SDS011;64024;55.820;37.574;2023-03-23T04:52:37;5.25;;;4.75;;
75446;SDS011;64024;55.820;37.574;2023-03-23T04:55:10;5.85;;;5.25;;
75446;SDS011;64024;55.820;37.574;2023-03-23T04:57:37;4.95;;;4.45;;
75446;SDS011;64024;55.820;37.574;2023-03-23T05:00:03;5.10;;;4.60;;
75446;SDS011;64024;55.820;37.574;2023-03-23T05:02:35;5.82;;;5.22;;
75446;SDS011;64024;55.820;37.574;2023-03-23T05:07:26;4.80;;;4.30;;
75446;SDS011;64024;55.820;37.574;2023-03-23T05:09:52;5.78;;;5.18;;
75446;SDS011;64024;55.820;37.574;2023-03-23T05:12:17;5.53;;;5.03;;
75446;SDS011;64024;55.820;37.574;2023-03-23T05:14:43;5.90;;;4.97;;
75446;SDS011;64024;55.820;37.574;2023-03-23T05:17:08;5.82;;;5.22;;
75446;SDS011;64024;55.820;37.574;2023-03-23T05:19:34;5.50;;;5.00;;
75446;SDS011;64024;55.820;37.574;2023-03-23T05:22:01;5.72;;;5.05;;
75446;SDS011;64024;55.820;37.574;2023-03-23T05:24:30;5.55;;;5.05;;
75446;SDS011;64024;55.820;37.574;2023-03-23T05:26:58;5.38;;;4.88;;
75446;SDS011;64024;55.820;37.574;2023-03-23T05:29:24;5.80;;;5.20;;
75446;SDS011;64024;55.820;37.574;2023-03-23T05:31:51;5.38;;;4.85;;
75446;SDS011;64024;55.820;37.574;2023-03-23T05:34:18;6.28;;;5.78;;
75446;SDS011;64024;55.820;37.574;2023-03-23T05:36:44;5.70;;;5.20;;
75446;SDS011;64024;55.820;37.574;2023-03-23T05:39:11;5.85;;;5.07;;
75446;SDS011;64024;55.820;37.574;2023-03-23T05:41:38;5.80;;;5.13;;
75446;SDS011;64024;55.820;37.574;2023-03-23T05:44:04;5.45;;;4.95;;
75446;SDS011;64024;55.820;37.574;2023-03-23T05:46:29;5.72;;;5.22;;
75446;SDS011;64024;55.820;37.574;2023-03-23T05:48:55;5.60;;;5.03;;
75446;SDS011;64024;55.820;37.574;2023-03-23T05:51:21;5.88;;;5.38;;
75446;SDS011;64024;55.820;37.574;2023-03-23T05:53:47;6.75;;;6.07;;
75446;SDS011;64024;55.820;37.574;2023-03-23T05:56:13;4.95;;;4.43;;
75446;SDS011;64024;55.820;37.574;2023-03-23T05:58:39;6.60;;;5.95;;
75446;SDS011;64024;55.820;37.574;2023-03-23T06:01:08;6.18;;;5.57;;
75446;SDS011;64024;55.820;37.574;2023-03-23T06:03:34;6.60;;;6.00;;
75446;SDS011;64024;55.820;37.574;2023-03-23T06:06:03;6.47;;;5.88;;
75446;SDS011;64024;55.820;37.574;2023-03-23T06:08:29;6.43;;;5.93;;
75446;SDS011;64024;55.820;37.574;2023-03-23T06:10:55;6.10;;;5.55;;
75446;SDS011;64024;55.820;37.574;2023-03-23T06:13:21;5.72;;;4.93;;
75446;SDS011;64024;55.820;37.574;2023-03-23T06:15:48;7.10;;;6.40;;
75446;SDS011;64024;55.820;37.574;2023-03-23T06:18:14;5.78;;;5.28;;
75446;SDS011;64024;55.820;37.574;2023-03-23T06:20:40;6.88;;;6.20;;
75446;SDS011;64024;55.820;37.574;2023-03-23T06:23:08;7.07;;;6.38;;
75446;SDS011;64024;55.820;37.574;2023-03-23T06:25:34;6.20;;;5.60;;
75446;SDS011;64024;55.820;37.574;2023-03-23T06:27:59;6.60;;;5.68;;
75446;SDS011;64024;55.820;37.574;2023-03-23T06:30:25;7.05;;;6.32;;
75446;SDS011;64024;55.820;37.574;2023-03-23T06:33:11;6.10;;;5.57;;
75446;SDS011;64024;55.820;37.574;2023-03-23T06:35:37;6.45;;;5.85;;
75446;SDS011;64024;55.820;37.574;2023-03-23T06:38:02;6.40;;;5.80;;
75446;SDS011;64024;55.820;37.574;2023-03-23T06:40:28;6.68;;;6.05;;
75446;SDS011;64024;55.820;37.574;2023-03-23T06:42:54;7.03;;;6.15;;
75446;SDS011;64024;55.820;37.574;2023-03-23T06:45:22;6.70;;;5.95;;
75446;SDS011;64024;55.820;37.574;2023-03-23T06:47:47;6.45;;;5.72;;
75446;SDS011;64024;55.820;37.574;2023-03-23T06:50:14;6.82;;;6.00;;
75446;SDS011;64024;55.820;37.574;2023-03-23T06:52:44;6.30;;;5.75;;
75446;SDS011;64024;55.820;37.574;2023-03-23T06:55:11;6.75;;;5.93;;
75446;SDS011;64024;55.820;37.574;2023-03-23T06:57:37;7.97;;;6.13;;
75446;SDS011;64024;55.820;37.574;2023-03-23T07:00:02;6.78;;;6.07;;
75446;SDS011;64024;55.820;37.574;2023-03-23T07:02:40;7.63;;;6.85;;
75446;SDS011;64024;55.820;37.574;2023-03-23T07:05:07;7.03;;;6.32;;
75446;SDS011;64024;55.820;37.574;2023-03-23T07:07:38;8.68;;;7.00;;
75446;SDS011;64024;55.820;37.574;2023-03-23T07:10:05;6.88;;;6.18;;
75446;SDS011;64024;55.820;37.574;2023-03-23T07:12:33;8.27;;;7.10;;
75446;SDS011;64024;55.820;37.574;2023-03-23T07:15:01;6.60;;;6.00;;
75446;SDS011;64024;55.820;37.574;2023-03-23T07:17:27;7.35;;;6.65;;
75446;SDS011;64024;55.820;37.574;2023-03-23T07:19:53;7.45;;;6.68;;
75446;SDS011;64024;55.820;37.574;2023-03-23T07:22:19;8.85;;;7.65;;
75446;SDS011;64024;55.820;37.574;2023-03-23T07:24:45;7.50;;;6.68;;
75446;SDS011;64024;55.820;37.574;2023-03-23T07:27:10;8.63;;;7.88;;
75446;SDS011;64024;55.820;37.574;2023-03-23T07:29:36;7.43;;;6.72;;
75446;SDS011;64024;55.820;37.574;2023-03-23T07:32:04;7.82;;;6.68;;
75446;SDS011;64024;55.820;37.574;2023-03-23T07:34:30;8.57;;;6.72;;
75446;SDS011;64024;55.820;37.574;2023-03-23T07:36:57;7.13;;;6.38;;
75446;SDS011;64024;55.820;37.574;2023-03-23T07:39:23;7.55;;;6.75;;
75446;SDS011;64024;55.820;37.574;2023-03-23T07:41:49;7.00;;;6.30;;
75446;SDS011;64024;55.820;37.574;2023-03-23T07:44:15;7.35;;;6.72;;
75446;SDS011;64024;55.820;37.574;2023-03-23T07:46:41;6.78;;;6.07;;
75446;SDS011;64024;55.820;37.574;2023-03-23T07:49:07;7.50;;;6.80;;
75446;SDS011;64024;55.820;37.574;2023-03-23T07:51:33;8.15;;;7.35;;
75446;SDS011;64024;55.820;37.574;2023-03-23T07:53:59;8.48;;;7.35;;
75446;SDS011;64024;55.820;37.574;2023-03-23T07:56:27;9.02;;;7.15;;
75446;SDS011;64024;55.820;37.574;2023-03-23T07:58:54;7.95;;;7.25;;
75446;SDS011;64024;55.820;37.574;2023-03-23T08:01:19;8.85;;;7.47;;
75446;SDS011;64024;55.820;37.574;2023-03-23T08:03:45;7.65;;;6.85;;
75446;SDS011;64024;55.820;37.574;2023-03-23T08:06:12;6.95;;;6.25;;
75446;SDS011;64024;55.820;37.574;2023-03-23T08:08:37;7.88;;;7.15;;
75446;SDS011;64024;55.820;37.574;2023-03-23T08:11:06;7.47;;;6.32;;
75446;SDS011;64024;55.820;37.574;2023-03-23T08:13:32;8.43;;;5.93;;
75446;SDS011;64024;55.820;37.574;2023-03-23T08:16:00;7.90;;;7.20;;
75446;SDS011;64024;55.820;37.574;2023-03-23T08:18:29;8.13;;;7.30;;
75446;SDS011;64024;55.820;37.574;2023-03-23T08:20:56;7.90;;;7.13;;
75446;SDS011;64024;55.820;37.574;2023-03-23T08:23:22;8.23;;;7.53;;
75446;SDS011;64024;55.820;37.574;2023-03-23T08:25:48;7.65;;;6.93;;
75446;SDS011;64024;55.820;37.574;2023-03-23T08:28:14;8.00;;;6.60;;
75446;SDS011;64024;55.820;37.574;2023-03-23T08:30:40;6.72;;;6.05;;
75446;SDS011;64024;55.820;37.574;2023-03-23T08:33:07;7.65;;;6.97;;
75446;SDS011;64024;55.820;37.574;2023-03-23T08:35:35;6.50;;;5.82;;
75446;SDS011;64024;55.820;37.574;2023-03-23T08:38:01;7.60;;;6.90;;
75446;SDS011;64024;55.820;37.574;2023-03-23T08:40:28;7.03;;;6.43;;
75446;SDS011;64024;55.820;37.574;2023-03-23T08:42:54;8.25;;;7.45;;
75446;SDS011;64024;55.820;37.574;2023-03-23T08:45:21;8.85;;;7.95;;
75446;SDS011;64024;55.820;37.574;2023-03-23T08:47:49;8.60;;;7.72;;
75446;SDS011;64024;55.820;37.574;2023-03-23T08:50:21;7.15;;;6.55;;
75446;SDS011;64024;55.820;37.574;2023-03-23T08:52:51;8.20;;;7.47;;
75446;SDS011;64024;55.820;37.574;2023-03-23T08:55:18;8.90;;;7.72;;
75446;SDS011;64024;55.820;37.574;2023-03-23T08:57:44;10.60;;;7.40;;
75446;SDS011;64024;55.820;37.574;2023-03-23T09:00:11;9.98;;;7.75;;
75446;SDS011;64024;55.820;37.574;2023-03-23T09:02:42;8.25;;;7.45;;
75446;SDS011;64024;55.820;37.574;2023-03-23T09:05:09;8.95;;;8.05;;
75446;SDS011;64024;55.820;37.574;2023-03-23T09:07:37;9.40;;;8.50;;
75446;SDS011;64024;55.820;37.574;2023-03-23T09:10:07;8.07;;;7.35;;
75446;SDS011;64024;55.820;37.574;2023-03-23T09:12:34;8.70;;;7.90;;
75446;SDS011;64024;55.820;37.574;2023-03-23T09:15:01;10.65;;;9.10;;
75446;SDS011;64024;55.820;37.574;2023-03-23T09:17:38;8.38;;;7.55;;
75446;SDS011;64024;55.820;37.574;2023-03-23T09:20:05;9.80;;;8.80;;
75446;SDS011;64024;55.820;37.574;2023-03-23T09:22:42;8.75;;;7.90;;
75446;SDS011;64024;55.820;37.574;2023-03-23T09:25:10;8.85;;;7.35;;
75446;SDS011;64024;55.820;37.574;2023-03-23T09:27:37;9.15;;;8.25;;
75446;SDS011;64024;55.820;37.574;2023-03-23T09:30:06;8.43;;;7.38;;
75446;SDS011;64024;55.820;37.574;2023-03-23T09:32:35;9.32;;;8.50;;
75446;SDS011;64024;55.820;37.574;2023-03-23T09:35:03;8.32;;;7.53;;
75446;SDS011;64024;55.820;37.574;2023-03-23T09:37:32;8.93;;;8.02;;
75446;SDS011;64024;55.820;37.574;2023-03-23T09:40:00;8.20;;;7.50;;
75446;SDS011;64024;55.820;37.574;2023-03-23T09:47:38;8.18;;;7.38;;
75446;SDS011;64024;55.820;37.574;2023-03-23T09:50:10;8.68;;;7.80;;
75446;SDS011;64024;55.820;37.574;2023-03-23T09:52:56;9.00;;;8.02;;
75446;SDS011;64024;55.820;37.574;2023-03-23T09:55:24;8.10;;;7.30;;
75446;SDS011;64024;55.820;37.574;2023-03-23T09:58:02;9.52;;;7.50;;
75446;SDS011;64024;55.820;37.574;2023-03-23T10:00:47;7.38;;;6.68;;
75446;SDS011;64024;55.820;37.574;2023-03-23T10:03:34;9.55;;;7.95;;
75446;SDS011;64024;55.820;37.574;2023-03-23T10:06:07;7.95;;;7.15;;
75446;SDS011;64024;55.820;37.574;2023-03-23T10:08:35;7.43;;;6.75;;
75446;SDS011;64024;55.820;37.574;2023-03-23T10:13:57;8.07;;;6.72;;
75446;SDS011;64024;55.820;37.574;2023-03-23T10:16:37;7.75;;;7.03;;
75446;SDS011;64024;55.820;37.574;2023-03-23T10:19:20;6.20;;;5.57;;
75446;SDS011;64024;55.820;37.574;2023-03-23T10:22:02;6.43;;;5.82;;
75446;SDS011;64024;55.820;37.574;2023-03-23T10:24:35;5.47;;;4.97;;
75446;SDS011;64024;55.820;37.574;2023-03-23T10:30:03;6.75;;;6.13;;
75446;SDS011;64024;55.820;37.574;2023-03-23T10:35:18;5.88;;;5.38;;
75446;SDS011;64024;55.820;37.574;2023-03-23T10:37:50;6.68;;;5.97;;
75446;SDS011;64024;55.820;37.574;2023-03-23T10:42:49;5.90;;;5.30;;
75446;SDS011;64024;55.820;37.574;2023-03-23T10:50:38;6.13;;;5.50;;
75446;SDS011;64024;55.820;37.574;2023-03-23T10:53:23;6.00;;;5.38;;
75446;SDS011;64024;55.820;37.574;2023-03-23T10:55:57;5.70;;;5.20;;
75446;SDS011;64024;55.820;37.574;2023-03-23T10:58:24;6.13;;;5.53;;
75446;SDS011;64024;55.820;37.574;2023-03-23T11:00:54;5.90;;;5.28;;
75446;SDS011;64024;55.820;37.574;2023-03-23T11:08:19;5.70;;;5.15;;
75446;SDS011;64024;55.820;37.574;2023-03-23T11:10:50;6.47;;;5.78;;
75446;SDS011;64024;55.820;37.574;2023-03-23T11:13:27;6.32;;;5.72;;
75446;SDS011;64024;55.820;37.574;2023-03-23T11:15:56;5.50;;;4.80;;
75446;SDS011;64024;55.820;37.574;2023-03-23T11:18:26;6.18;;;5.45;;
75446;SDS011;64024;55.820;37.574;2023-03-23T11:21:01;5.93;;;5.32;;
75446;SDS011;64024;55.820;37.574;2023-03-23T11:23:29;5.80;;;5.20;;
75446;SDS011;64024;55.820;37.574;2023-03-23T11:28:43;6.05;;;5.45;;
75446;SDS011;64024;55.820;37.574;2023-03-23T11:31:16;6.03;;;5.38;;
75446;SDS011;64024;55.820;37.574;2023-03-23T11:36:57;5.60;;;5.03;;
75446;SDS011;64024;55.820;37.574;2023-03-23T11:47:53;5.43;;;4.93;;
75446;SDS011;64024;55.820;37.574;2023-03-23T11:51:00;6.15;;;5.55;;
75446;SDS011;64024;55.820;37.574;2023-03-23T11:56:29;5.13;;;4.63;;
75446;SDS011;64024;55.820;37.574;2023-03-23T11:58:58;4.80;;;4.30;;
75446;SDS011;64024;55.820;37.574;2023-03-23T12:04:24;4.65;;;4.22;;
75446;SDS011;64024;55.820;37.574;2023-03-23T12:07:46;5.60;;;5.10;;
75446;SDS011;64024;55.820;37.574;2023-03-23T12:29:44;6.43;;;4.80;;
75446;SDS011;64024;55.820;37.574;2023-03-23T12:38:03;5.40;;;4.38;;
75446;SDS011;64024;55.820;37.574;2023-03-23T12:52:11;4.70;;;3.83;;
75446;SDS011;64024;55.820;37.574;2023-03-23T12:57:39;4.60;;;4.20;;
75446;SDS011;64024;55.820;37.574;2023-03-23T13:02:57;4.35;;;3.70;;
75446;SDS011;64024;55.820;37.574;2023-03-23T13:05:43;4.47;;;4.07;;
75446;SDS011;64024;55.820;37.574;2023-03-23T13:08:22;4.60;;;4.03;;
75446;SDS011;64024;55.820;37.574;2023-03-23T13:10:56;5.03;;;3.92;;
75446;SDS011;64024;55.820;37.574;2023-03-23T13:13:48;14.32;;;4.60;;
75446;SDS011;64024;55.820;37.574;2023-03-23T13:19:28;4.35;;;3.95;;
75446;SDS011;64024;55.820;37.574;2023-03-23T13:24:31;4.97;;;4.30;;
75446;SDS011;64024;55.820;37.574;2023-03-23T13:27:01;4.53;;;4.13;;
75446;SDS011;64024;55.820;37.574;2023-03-23T13:29:27;4.65;;;4.25;;
75446;SDS011;64024;55.820;37.574;2023-03-23T13:32:39;4.25;;;3.67;;
75446;SDS011;64024;55.820;37.574;2023-03-23T13:34:42;4.38;;;3.97;;
75446;SDS011;64024;55.820;37.574;2023-03-23T13:37:19;5.90;;;4.43;;
75446;SDS011;64024;55.820;37.574;2023-03-23T13:39:52;5.20;;;4.50;;
75446;SDS011;64024;55.820;37.574;2023-03-23T13:45:18;4.88;;;4.47;;
75446;SDS011;64024;55.820;37.574;2023-03-23T13:50:44;4.50;;;4.10;;
75446;SDS011;64024;55.820;37.574;2023-03-23T13:53:26;5.07;;;4.63;;
75446;SDS011;64024;55.820;37.574;2023-03-23T13:56:07;4.53;;;4.13;;
75446;SDS011;64024;55.820;37.574;2023-03-23T13:58:51;4.72;;;4.22;;
75446;SDS011;64024;55.820;37.574;2023-03-23T14:04:04;4.60;;;3.90;;
75446;SDS011;64024;55.820;37.574;2023-03-23T14:06:35;4.85;;;4.38;;
75446;SDS011;64024;55.820;37.574;2023-03-23T14:09:06;4.63;;;4.22;;
75446;SDS011;64024;55.820;37.574;2023-03-23T14:14:46;5.25;;;4.75;;
75446;SDS011;64024;55.820;37.574;2023-03-23T14:17:19;4.85;;;4.45;;
75446;SDS011;64024;55.820;37.574;2023-03-23T14:19:50;5.80;;;5.22;;
75446;SDS011;64024;55.820;37.574;2023-03-23T14:22:24;5.07;;;4.50;;
75446;SDS011;64024;55.820;37.574;2023-03-23T14:24:53;5.45;;;4.80;;
75446;SDS011;64024;55.820;37.574;2023-03-23T14:27:26;5.25;;;4.75;;
75446;SDS011;64024;55.820;37.574;2023-03-23T14:29:57;5.05;;;4.55;;
75446;SDS011;64024;55.820;37.574;2023-03-23T14:32:29;5.65;;;5.15;;
75446;SDS011;64024;55.820;37.574;2023-03-23T14:34:57;5.15;;;4.65;;
75446;SDS011;64024;55.820;37.574;2023-03-23T14:37:25;5.65;;;4.45;;
75446;SDS011;64024;55.820;37.574;2023-03-23T14:39:54;5.78;;;5.25;;
75446;SDS011;64024;55.820;37.574;2023-03-23T14:42:28;5.90;;;5.38;;
75446;SDS011;64024;55.820;37.574;2023-03-23T14:44:56;6.10;;;5.55;;
75446;SDS011;64024;55.820;37.574;2023-03-23T14:47:31;5.70;;;4.90;;
75446;SDS011;64024;55.820;37.574;2023-03-23T14:52:34;5.40;;;4.25;;
75446;SDS011;64024;55.820;37.574;2023-03-23T14:55:11;5.70;;;5.10;;
75446;SDS011;64024;55.820;37.574;2023-03-23T14:57:41;5.65;;;5.13;;
75446;SDS011;64024;55.820;37.574;2023-03-23T15:02:40;5.70;;;4.70;;
75446;SDS011;64024;55.820;37.574;2023-03-23T15:05:30;5.82;;;5.32;;
75446;SDS011;64024;55.820;37.574;2023-03-23T15:08:03;5.80;;;5.20;;
75446;SDS011;64024;55.820;37.574;2023-03-23T15:10:31;5.65;;;5.10;;
75446;SDS011;64024;55.820;37.574;2023-03-23T15:12:58;6.15;;;5.55;;
75446;SDS011;64024;55.820;37.574;2023-03-23T15:15:25;5.97;;;5.22;;
75446;SDS011;64024;55.820;37.574;2023-03-23T15:17:55;6.35;;;5.85;;
75446;SDS011;64024;55.820;37.574;2023-03-23T15:20:43;6.50;;;5.82;;
75446;SDS011;64024;55.820;37.574;2023-03-23T15:23:22;6.88;;;5.50;;
75446;SDS011;64024;55.820;37.574;2023-03-23T15:25:58;7.93;;;4.97;;
75446;SDS011;64024;55.820;37.574;2023-03-23T15:28:30;6.55;;;5.53;;
75446;SDS011;64024;55.820;37.574;2023-03-23T15:31:00;10.35;;;5.18;;
75446;SDS011;64024;55.820;37.574;2023-03-23T15:33:33;5.90;;;5.35;;
75446;SDS011;64024;55.820;37.574;2023-03-23T15:36:04;5.80;;;5.18;;
75446;SDS011;64024;55.820;37.574;2023-03-23T15:38:33;6.95;;;5.40;;
75446;SDS011;64024;55.820;37.574;2023-03-23T15:41:06;18.48;;;5.68;;
75446;SDS011;64024;55.820;37.574;2023-03-23T15:46:22;5.65;;;5.15;;
75446;SDS011;64024;55.820;37.574;2023-03-23T15:51:25;7.88;;;5.35;;
75446;SDS011;64024;55.820;37.574;2023-03-23T15:53:55;6.15;;;4.00;;
75446;SDS011;64024;55.820;37.574;2023-03-23T15:56:21;5.60;;;4.40;;
75446;SDS011;64024;55.820;37.574;2023-03-23T15:58:49;6.25;;;4.05;;
75446;SDS011;64024;55.820;37.574;2023-03-23T16:01:19;5.32;;;4.45;;
75446;SDS011;64024;55.820;37.574;2023-03-23T16:03:50;5.55;;;4.38;;
75446;SDS011;64024;55.820;37.574;2023-03-23T16:06:22;5.00;;;4.15;;
75446;SDS011;64024;55.820;37.574;2023-03-23T16:08:50;5.07;;;3.97;;
75446;SDS011;64024;55.820;37.574;2023-03-23T16:11:18;8.27;;;3.92;;
75446;SDS011;64024;55.820;37.574;2023-03-23T16:13:43;6.15;;;4.00;;
75446;SDS011;64024;55.820;37.574;2023-03-23T16:16:15;4.45;;;3.83;;
75446;SDS011;64024;55.820;37.574;2023-03-23T16:18:42;5.25;;;4.13;;
75446;SDS011;64024;55.820;37.574;2023-03-23T16:21:08;5.82;;;4.05;;
75446;SDS011;64024;55.820;37.574;2023-03-23T16:23:36;6.00;;;4.47;;
75446;SDS011;64024;55.820;37.574;2023-03-23T16:26:05;4.78;;;4.28;;
75446;SDS011;64024;55.820;37.574;2023-03-23T16:28:33;11.23;;;5.50;;
75446;SDS011;64024;55.820;37.574;2023-03-23T16:31:08;5.10;;;4.32;;
75446;SDS011;64024;55.820;37.574;2023-03-23T16:33:39;4.47;;;3.65;;
75446;SDS011;64024;55.820;37.574;2023-03-23T16:36:05;4.50;;;4.10;;
75446;SDS011;64024;55.820;37.574;2023-03-23T16:38:31;5.90;;;3.58;;
75446;SDS011;64024;55.820;37.574;2023-03-23T16:40:57;4.70;;;4.03;;
75446;SDS011;64024;55.820;37.574;2023-03-23T16:43:23;7.18;;;3.47;;
75446;SDS011;64024;55.820;37.574;2023-03-23T16:45:53;5.35;;;3.53;;
75446;SDS011;64024;55.820;37.574;2023-03-23T16:48:21;5.05;;;3.72;;
75446;SDS011;64024;55.820;37.574;2023-03-23T16:50:47;4.20;;;3.20;;
75446;SDS011;64024;55.820;37.574;2023-03-23T16:53:16;3.97;;;3.30;;
75446;SDS011;64024;55.820;37.574;2023-03-23T16:55:45;5.28;;;3.00;;
75446;SDS011;64024;55.820;37.574;2023-03-23T17:00:43;4.05;;;3.53;;